Time;durP1;ratioP1;P1;durP2;ratioP2;P2;SDS_P1;SDS_P2;PMS_P1;PMS_P2;Temp;Humidity;BMP_temperature;BMP_pressure;BME280_temperature;BME280_humidity;BME280_pressure;Samples;Min_cycle;Max_cycle;Signal;HPM_P1;HPM_P2
2023/07/19 00:01:43;;;;;;;0.35;0.35;;;20.60;65.40;;;;;;5079661;28;20040;-59
2023/07/19 00:04:09;;;;;;;2.13;0.60;;;20.60;65.50;;;;;;5075215;28;20063;-59
2023/07/19 00:06:35;;;;;;;0.65;0.50;;;20.50;65.60;;;;;;5086495;28;20034;-59
2023/07/19 00:09:01;;;;;;;2.65;0.57;;;20.50;65.70;;;;;;5072067;28;20028;-59
2023/07/19 00:11:26;;;;;;;1.02;0.70;;;20.50;65.70;;;;;;5076207;28;20040;-59
2023/07/19 00:13:52;;;;;;;0.50;0.50;;;20.60;65.80;;;;;;5078406;28;21243;-59
2023/07/19 00:16:18;;;;;;;0.50;0.50;;;20.60;65.70;;;;;;5075779;28;20597;-58
2023/07/19 00:18:43;;;;;;;1.02;0.30;;;20.60;65.70;;;;;;5070582;28;20039;-58
2023/07/19 00:21:09;;;;;;;0.50;0.50;;;20.60;65.80;;;;;;5075794;28;20023;-58
2023/07/19 00:23:35;;;;;;;0.50;0.50;;;20.60;65.80;;;;;;5082335;28;20547;-58
2023/07/19 00:26:01;;;;;;;0.60;0.60;;;20.60;65.80;;;;;;5079883;28;20514;-58
2023/07/19 00:28:26;;;;;;;0.50;0.50;;;20.60;65.70;;;;;;5078403;28;20097;-58
2023/07/19 00:31:03;;;;;;;1.00;0.45;;;20.60;65.80;;;;;;5075472;28;20025;-58
2023/07/19 00:33:29;;;;;;;0.50;0.50;;;20.60;65.90;;;;;;5079128;28;20020;-58
2023/07/19 00:35:55;;;;;;;0.95;0.40;;;20.60;66.10;;;;;;5077013;28;20044;-58
2023/07/19 00:38:21;;;;;;;0.98;0.40;;;20.50;66.10;;;;;;5075494;28;20031;-59
2023/07/19 00:40:48;;;;;;;0.65;0.40;;;20.50;66.30;;;;;;5076228;28;20024;-58
2023/07/19 00:43:14;;;;;;;0.30;0.30;;;20.50;66.40;;;;;;5076926;28;20040;-58
2023/07/19 00:45:53;;;;;;;0.50;0.50;;;20.50;66.50;;;;;;5075947;28;20036;-59
2023/07/19 00:48:20;;;;;;;0.60;0.60;;;20.40;66.40;;;;;;5074380;28;20039;-58
2023/07/19 00:50:48;;;;;;;0.57;0.57;;;20.30;66.50;;;;;;5076120;28;20024;-58
2023/07/19 00:53:14;;;;;;;0.60;0.60;;;20.30;66.60;;;;;;5072555;28;20039;-58
2023/07/19 00:55:40;;;;;;;1.35;0.88;;;20.30;66.70;;;;;;5067561;28;20028;-57
2023/07/19 00:58:06;;;;;;;1.83;0.73;;;20.20;66.90;;;;;;5071700;28;20086;-58
2023/07/19 01:00:32;;;;;;;0.95;0.50;;;20.20;67.00;;;;;;5071652;28;20025;-59
2023/07/19 01:02:59;;;;;;;0.55;0.40;;;20.10;67.00;;;;;;5076289;28;20035;-59
2023/07/19 01:05:25;;;;;;;0.40;0.40;;;20.00;67.10;;;;;;5085411;28;20382;-58
2023/07/19 01:07:52;;;;;;;0.40;0.40;;;20.00;67.30;;;;;;5082758;28;20040;-59
2023/07/19 01:10:18;;;;;;;0.45;0.45;;;20.00;67.40;;;;;;5078637;28;20035;-59
2023/07/19 01:12:43;;;;;;;0.85;0.52;;;19.90;67.50;;;;;;5078821;28;20049;-59
2023/07/19 01:15:09;;;;;;;0.50;0.50;;;19.90;67.60;;;;;;5080504;28;20028;-59
2023/07/19 01:17:36;;;;;;;0.57;0.57;;;19.80;67.80;;;;;;5078604;28;20032;-59
2023/07/19 01:20:02;;;;;;;0.50;0.50;;;19.70;67.90;;;;;;5073716;28;20036;-59
2023/07/19 01:22:35;;;;;;;0.77;0.70;;;19.70;67.90;;;;;;5076679;28;20434;-59
2023/07/19 01:25:00;;;;;;;;;;;19.70;68.10;;;;;;5071983;28;20037;-59
2023/07/19 01:27:26;;;;;;;0.57;0.57;;;19.60;68.30;;;;;;5077195;28;19919;-59
2023/07/19 01:29:52;;;;;;;0.50;0.50;;;19.50;68.50;;;;;;5071871;28;20048;-58
2023/07/19 01:32:18;;;;;;;0.43;0.43;;;19.50;68.60;;;;;;5074820;28;20443;-58
2023/07/19 01:34:43;;;;;;;0.88;0.50;;;19.40;68.70;;;;;;5074531;28;20502;-58
2023/07/19 01:37:09;;;;;;;0.45;0.45;;;19.40;68.80;;;;;;5083823;28;20027;-58
2023/07/19 01:39:35;;;;;;;0.50;0.50;;;19.40;68.90;;;;;;5069255;28;20028;-58
2023/07/19 01:42:00;;;;;;;1.40;0.75;;;19.40;69.00;;;;;;5072878;28;20375;-58
2023/07/19 01:44:26;;;;;;;0.70;0.60;;;19.30;69.00;;;;;;5074273;28;20411;-58
2023/07/19 01:46:52;;;;;;;0.40;0.40;;;19.30;69.10;;;;;;5078971;28;20043;-58
2023/07/19 01:49:18;;;;;;;0.70;0.70;;;19.20;69.10;;;;;;5073186;28;20032;-58
2023/07/19 01:51:43;;;;;;;0.70;0.63;;;19.20;69.20;;;;;;5085241;28;20027;-57
2023/07/19 01:54:09;;;;;;;0.57;0.50;;;19.20;69.30;;;;;;5080571;28;20024;-58
2023/07/19 01:56:34;;;;;;;0.60;0.60;;;19.20;69.40;;;;;;5085735;28;20081;-57
2023/07/19 01:59:00;;;;;;;0.90;0.90;;;19.20;69.50;;;;;;5074870;28;20024;-58
2023/07/19 02:01:26;;;;;;;0.50;0.50;;;19.10;69.50;;;;;;5077066;28;20025;-58
2023/07/19 02:03:51;;;;;;;1.50;0.63;;;19.10;69.70;;;;;;5077502;28;20031;-57
2023/07/19 02:06:17;;;;;;;0.43;0.43;;;19.00;69.80;;;;;;5072986;28;20040;-58
2023/07/19 02:08:43;;;;;;;1.75;0.55;;;19.00;69.80;;;;;;5078293;28;20095;-58
2023/07/19 02:11:08;;;;;;;0.57;0.52;;;19.00;69.90;;;;;;5078660;28;20024;-57
2023/07/19 02:13:34;;;;;;;0.50;0.50;;;19.00;70.00;;;;;;5081409;28;20128;-58
2023/07/19 02:16:00;;;;;;;0.43;0.40;;;18.90;70.00;;;;;;5085632;28;20111;-58
2023/07/19 02:18:25;;;;;;;3.75;0.70;;;18.90;70.00;;;;;;5080758;28;20028;-57
2023/07/19 02:20:53;;;;;;;1.65;1.08;;;18.90;70.10;;;;;;5086001;28;20495;-58
2023/07/19 02:23:19;;;;;;;0.68;0.60;;;18.90;70.10;;;;;;5078000;28;20041;-58
2023/07/19 02:25:49;;;;;;;1.55;0.52;;;18.90;70.60;;;;;;5082387;28;20036;-58
2023/07/19 02:28:15;;;;;;;0.68;0.68;;;18.80;70.20;;;;;;5075499;28;20473;-58
2023/07/19 02:30:42;;;;;;;0.60;0.50;;;18.80;70.30;;;;;;5070931;28;20068;-58
2023/07/19 02:33:10;;;;;;;0.45;0.45;;;18.80;70.40;;;;;;5077045;28;20024;-59
2023/07/19 02:35:36;;;;;;;0.80;0.80;;;18.80;70.40;;;;;;5069206;28;20021;-59
2023/07/19 02:38:02;;;;;;;1.38;0.82;;;18.80;70.50;;;;;;5073255;28;20131;-59
2023/07/19 02:40:27;;;;;;;0.60;0.60;;;18.80;70.80;;;;;;5084301;28;20127;-59
2023/07/19 02:42:53;;;;;;;0.65;0.60;;;18.80;70.80;;;;;;5077447;28;20036;-59
2023/07/19 02:45:19;;;;;;;0.98;0.60;;;18.80;70.80;;;;;;5074713;28;20029;-58
2023/07/19 02:47:44;;;;;;;0.50;0.50;;;18.80;70.80;;;;;;5073267;28;20035;-58
2023/07/19 02:50:10;;;;;;;0.88;0.80;;;18.80;70.90;;;;;;5071238;28;20021;-58
2023/07/19 02:52:36;;;;;;;0.47;0.47;;;18.80;71.00;;;;;;5078640;28;20047;-58
2023/07/19 02:55:02;;;;;;;0.52;0.47;;;18.70;70.90;;;;;;5067659;28;20489;-57
2023/07/19 02:57:27;;;;;;;0.73;0.40;;;18.80;71.10;;;;;;5074390;28;20028;-60
2023/07/19 02:59:53;;;;;;;0.30;0.30;;;18.70;71.10;;;;;;5074053;28;20059;-59
2023/07/19 03:02:19;;;;;;;0.47;0.47;;;18.70;71.10;;;;;;5077258;28;20112;-59
2023/07/19 03:04:45;;;;;;;0.63;0.50;;;18.70;71.20;;;;;;5065107;28;20568;-58
2023/07/19 03:07:10;;;;;;;0.40;0.40;;;18.70;71.20;;;;;;5072866;28;20117;-58
2023/07/19 03:09:36;;;;;;;1.42;0.60;;;18.70;71.30;;;;;;5070546;28;20025;-58
2023/07/19 03:12:02;;;;;;;0.45;0.40;;;18.70;71.30;;;;;;5077335;28;20037;-59
2023/07/19 03:14:28;;;;;;;0.50;0.50;;;18.60;71.30;;;;;;5072132;28;20522;-59
2023/07/19 03:16:53;;;;;;;1.50;1.23;;;18.60;71.30;;;;;;5075957;28;20032;-59
2023/07/19 03:19:19;;;;;;;0.70;0.70;;;18.60;71.40;;;;;;5078305;28;20469;-59
2023/07/19 03:21:45;;;;;;;0.60;0.50;;;18.60;71.50;;;;;;5080019;28;20741;-57
2023/07/19 03:24:12;;;;;;;2.95;0.70;;;18.60;71.50;;;;;;5079705;28;20118;-58
2023/07/19 03:26:38;;;;;;;0.47;0.47;;;18.60;72.20;;;;;;5074415;28;20525;-58
2023/07/19 03:29:03;;;;;;;0.65;0.32;;;18.60;71.60;;;;;;5076672;28;20037;-58
2023/07/19 03:31:29;;;;;;;0.90;0.50;;;18.50;71.50;;;;;;5082844;28;20073;-59
2023/07/19 03:33:54;;;;;;;0.63;0.40;;;18.50;71.60;;;;;;5077928;28;20357;-59
2023/07/19 03:36:20;;;;;;;0.63;0.50;;;18.50;71.70;;;;;;5084361;28;20035;-59
2023/07/19 03:38:46;;;;;;;0.50;0.50;;;18.40;71.90;;;;;;5069971;28;20028;-59
2023/07/19 03:41:11;;;;;;;1.13;0.52;;;18.40;71.80;;;;;;5078710;28;20393;-59
2023/07/19 03:43:37;;;;;;;1.13;0.98;;;18.40;71.80;;;;;;5068901;28;20036;-59
2023/07/19 03:46:06;;;;;;;0.52;0.40;;;18.40;71.90;;;;;;5067348;28;20032;-59
2023/07/19 03:48:32;;;;;;;0.98;0.30;;;18.40;72.00;;;;;;5070900;28;20033;-60
2023/07/19 03:51:01;;;;;;;0.55;0.55;;;18.40;72.00;;;;;;5079450;28;20561;-59
2023/07/19 03:53:28;;;;;;;0.65;0.57;;;18.40;72.00;;;;;;5074447;28;20023;-58
2023/07/19 03:55:55;;;;;;;0.45;0.40;;;18.40;72.00;;;;;;5076848;28;20024;-58
2023/07/19 03:58:22;;;;;;;0.60;0.60;;;18.40;72.10;;;;;;5073110;28;20462;-59
2023/07/19 04:00:48;;;;;;;0.68;0.55;;;18.30;72.10;;;;;;5079172;28;20031;-59
2023/07/19 04:03:13;;;;;;;0.52;0.52;;;18.40;72.20;;;;;;5077787;28;20029;-58
2023/07/19 04:05:39;;;;;;;0.47;0.40;;;18.40;72.30;;;;;;5073703;28;20032;-59
2023/07/19 04:08:04;;;;;;;0.40;0.30;;;18.40;72.40;;;;;;5068995;28;20387;-58
2023/07/19 04:10:30;;;;;;;1.10;0.60;;;18.40;72.40;;;;;;5077762;28;20021;-58
2023/07/19 04:12:56;;;;;;;0.40;0.40;;;18.50;72.50;;;;;;5076390;28;20040;-59
2023/07/19 04:15:21;;;;;;;1.48;0.73;;;18.50;72.50;;;;;;5075308;28;20040;-59
2023/07/19 04:17:47;;;;;;;0.63;0.63;;;18.50;72.40;;;;;;5071614;28;20392;-59
2023/07/19 04:20:12;;;;;;;0.68;0.68;;;18.70;72.50;;;;;;5077943;28;20317;-59
2023/07/19 04:22:38;;;;;;;0.68;0.60;;;18.70;72.40;;;;;;5078600;28;20336;-59
2023/07/19 04:25:04;;;;;;;0.70;0.70;;;18.80;72.30;;;;;;5083680;28;20028;-59
2023/07/19 04:27:31;;;;;;;0.47;0.47;;;18.80;72.30;;;;;;5076076;28;20071;-58
2023/07/19 04:29:57;;;;;;;0.68;0.60;;;18.90;72.20;;;;;;5058136;28;20058;-59
2023/07/19 04:32:22;;;;;;;1.17;0.77;;;18.90;72.10;;;;;;5078536;28;20017;-58
2023/07/19 04:34:48;;;;;;;0.60;0.55;;;19.00;72.10;;;;;;5073939;28;20077;-58
2023/07/19 04:37:14;;;;;;;1.25;1.10;;;19.00;72.00;;;;;;5076563;28;20032;-58
2023/07/19 04:39:39;;;;;;;1.02;0.80;;;19.10;72.00;;;;;;5080155;28;20028;-58
2023/07/19 04:42:06;;;;;;;1.17;0.70;;;19.00;71.90;;;;;;5079460;28;20029;-59
2023/07/19 04:44:31;;;;;;;3.10;0.85;;;19.10;71.90;;;;;;5075125;28;20028;-59
2023/07/19 04:46:57;;;;;;;1.27;0.95;;;19.10;71.80;;;;;;5072721;28;20539;-58
2023/07/19 04:49:23;;;;;;;1.25;1.00;;;19.20;71.80;;;;;;5076508;28;20111;-59
2023/07/19 04:51:49;;;;;;;1.60;0.80;;;19.20;71.80;;;;;;5069717;28;20029;-59
2023/07/19 04:54:14;;;;;;;0.80;0.80;;;19.20;71.80;;;;;;5075079;28;20032;-59
2023/07/19 04:56:40;;;;;;;0.70;0.70;;;19.30;71.70;;;;;;5083883;28;20028;-59
2023/07/19 04:59:06;;;;;;;1.00;0.93;;;19.30;71.60;;;;;;5075676;28;20033;-58
2023/07/19 05:01:31;;;;;;;0.82;0.73;;;19.30;71.50;;;;;;5076915;28;20069;-59
2023/07/19 05:03:57;;;;;;;1.00;0.80;;;19.40;71.50;;;;;;5074415;28;20032;-58
2023/07/19 05:06:22;;;;;;;1.20;1.02;;;19.40;71.50;;;;;;5070053;28;20039;-59
2023/07/19 05:08:48;;;;;;;2.22;1.13;;;19.40;71.70;;;;;;5076248;28;20119;-59
2023/07/19 05:11:14;;;;;;;1.70;0.80;;;19.50;71.70;;;;;;5075178;28;20064;-59
2023/07/19 05:13:39;;;;;;;1.92;1.05;;;19.50;71.60;;;;;;5073491;28;20060;-59
2023/07/19 05:16:05;;;;;;;1.77;0.80;;;19.50;71.60;;;;;;5082124;28;20020;-59
2023/07/19 05:18:31;;;;;;;1.75;0.85;;;19.50;71.70;;;;;;5076461;28;20402;-59
2023/07/19 05:20:57;;;;;;;0.98;0.88;;;19.50;71.90;;;;;;5071160;28;20028;-59
2023/07/19 05:23:22;;;;;;;3.10;1.33;;;19.50;72.00;;;;;;5081260;28;20039;-58
2023/07/19 05:25:48;;;;;;;3.20;0.75;;;19.60;72.10;;;;;;5071347;28;20029;-59
2023/07/19 05:28:14;;;;;;;3.92;1.27;;;19.60;72.20;;;;;;5075771;28;20119;-59
2023/07/19 05:30:39;;;;;;;0.75;0.68;;;19.60;72.20;;;;;;5074987;28;20028;-59
2023/07/19 05:33:05;;;;;;;0.98;0.82;;;19.60;72.30;;;;;;5078955;28;20016;-59
2023/07/19 05:35:31;;;;;;;1.58;1.05;;;19.70;72.40;;;;;;5071065;28;20388;-59
2023/07/19 05:37:57;;;;;;;2.17;0.80;;;19.70;72.60;;;;;;5075960;28;20111;-59
2023/07/19 05:40:23;;;;;;;2.90;0.88;;;19.70;72.70;;;;;;5078514;28;20510;-59
2023/07/19 05:42:48;;;;;;;1.67;0.68;;;19.70;72.80;;;;;;5064788;28;20033;-58
2023/07/19 05:45:14;;;;;;;1.08;0.80;;;19.80;73.00;;;;;;5071422;28;20127;-58
2023/07/19 05:47:39;;;;;;;2.67;1.00;;;19.90;73.00;;;;;;5075146;28;20038;-59
2023/07/19 05:50:06;;;;;;;1.23;0.70;;;19.90;72.90;;;;;;5080193;28;20387;-59
2023/07/19 05:52:32;;;;;;;1.13;0.80;;;20.00;72.90;;;;;;5074646;28;20452;-58
2023/07/19 05:54:57;;;;;;;0.73;0.57;;;20.10;72.80;;;;;;5073546;28;20063;-58
2023/07/19 05:57:23;;;;;;;1.02;0.88;;;20.20;72.80;;;;;;5078418;28;20041;-58
2023/07/19 05:59:49;;;;;;;0.82;0.65;;;20.30;72.80;;;;;;5075756;28;20064;-58
2023/07/19 06:02:14;;;;;;;1.00;0.85;;;20.30;72.70;;;;;;5075857;28;20040;-58
2023/07/19 06:04:40;;;;;;;1.77;0.90;;;20.30;72.50;;;;;;5074931;28;20041;-58
2023/07/19 06:07:05;;;;;;;2.42;0.80;;;20.40;72.50;;;;;;5077339;28;20020;-58
2023/07/19 06:09:31;;;;;;;0.77;0.77;;;20.40;72.10;;;;;;5072900;28;20040;-59
2023/07/19 06:11:57;;;;;;;1.35;0.70;;;20.40;72.10;;;;;;5085129;28;20101;-59
2023/07/19 06:14:24;;;;;;;0.70;0.70;;;20.50;71.80;;;;;;5074688;28;20029;-59
2023/07/19 06:16:50;;;;;;;2.80;1.30;;;20.50;71.60;;;;;;5076743;28;20013;-59
2023/07/19 06:19:18;;;;;;;1.58;0.73;;;20.60;71.30;;;;;;5074719;28;20082;-59
2023/07/19 06:21:44;;;;;;;1.40;0.75;;;20.60;70.90;;;;;;5071596;28;20033;-59
2023/07/19 06:24:09;;;;;;;4.88;1.60;;;20.70;70.80;;;;;;5077412;28;20029;-58
2023/07/19 06:26:35;;;;;;;1.67;1.25;;;20.80;70.80;;;;;;5078133;28;20017;-58
2023/07/19 06:29:01;;;;;;;0.65;0.65;;;20.90;70.40;;;;;;5085226;28;20029;-58
2023/07/19 06:31:26;;;;;;;0.88;0.70;;;20.90;70.10;;;;;;5071735;28;20029;-58
2023/07/19 06:33:52;;;;;;;1.30;0.73;;;20.90;69.60;;;;;;5070730;28;20028;-58
2023/07/19 06:36:17;;;;;;;0.70;0.70;;;21.00;69.40;;;;;;5082780;28;20051;-58
2023/07/19 06:38:43;;;;;;;0.80;0.75;;;21.00;69.00;;;;;;5068740;28;20036;-59
2023/07/19 06:41:09;;;;;;;1.08;0.65;;;21.00;68.70;;;;;;5073488;28;20439;-58
2023/07/19 06:43:34;;;;;;;2.83;0.90;;;21.10;68.60;;;;;;5073560;28;20029;-60
2023/07/19 06:46:00;;;;;;;0.82;0.52;;;21.20;68.40;;;;;;5072242;28;20064;-59
2023/07/19 06:48:26;;;;;;;0.77;0.70;;;21.20;68.20;;;;;;5071169;28;20035;-59
2023/07/19 06:50:52;;;;;;;2.28;1.10;;;21.30;67.80;;;;;;5068786;28;20113;-59
2023/07/19 06:53:18;;;;;;;0.80;0.80;;;21.20;67.10;;;;;;5079470;28;20511;-58
2023/07/19 06:55:44;;;;;;;1.52;0.50;;;21.20;67.00;;;;;;5075507;28;20064;-58
2023/07/19 06:58:09;;;;;;;3.25;0.88;;;21.40;66.80;;;;;;5073890;28;20264;-59
2023/07/19 07:00:35;;;;;;;2.67;0.50;;;21.50;66.20;;;;;;5077155;28;20024;-58
2023/07/19 07:03:03;;;;;;;1.48;0.70;;;21.60;65.90;;;;;;5073645;28;20490;-59
2023/07/19 07:05:29;;;;;;;0.70;0.70;;;21.70;65.60;;;;;;5076543;28;20025;-59
2023/07/19 07:07:55;;;;;;;0.63;0.50;;;21.80;65.10;;;;;;5083552;28;20032;-59
2023/07/19 07:10:20;;;;;;;1.90;0.68;;;21.90;65.20;;;;;;5079420;28;20336;-58
2023/07/19 07:12:46;;;;;;;0.95;0.70;;;21.90;65.00;;;;;;5079916;28;20438;-58
2023/07/19 07:15:12;;;;;;;0.43;0.43;;;21.90;64.90;;;;;;5077969;28;20459;-59
2023/07/19 07:17:38;;;;;;;0.73;0.68;;;21.90;64.70;;;;;;5055790;28;20052;-59
2023/07/19 07:20:06;;;;;;;1.35;0.47;;;22.00;64.70;;;;;;5075509;28;20039;-59
2023/07/19 07:22:32;;;;;;;0.82;0.52;;;22.00;64.50;;;;;;5072389;28;20082;-59
2023/07/19 07:24:58;;;;;;;1.05;0.95;;;22.00;64.30;;;;;;5078487;28;20036;-59
2023/07/19 07:27:23;;;;;;;1.17;0.70;;;21.90;64.10;;;;;;5081738;28;20024;-59
2023/07/19 07:29:49;;;;;;;1.90;0.47;;;21.90;64.00;;;;;;5074664;28;20464;-58
2023/07/19 07:32:15;;;;;;;0.50;0.40;;;22.00;64.20;;;;;;5065041;28;20120;-58
2023/07/19 07:34:40;;;;;;;1.13;0.93;;;22.00;64.10;;;;;;5080079;28;20025;-58
2023/07/19 07:37:06;;;;;;;1.75;1.15;;;22.00;63.20;;;;;;5077813;28;20028;-58
2023/07/19 07:39:34;;;;;;;0.55;0.55;;;22.00;63.10;;;;;;5078621;28;20111;-59
2023/07/19 07:42:00;;;;;;;2.10;0.70;;;22.00;62.80;;;;;;5072478;28;20501;-58
2023/07/19 07:44:26;;;;;;;1.10;0.50;;;22.00;62.60;;;;;;5078495;28;20058;-59
2023/07/19 07:46:52;;;;;;;1.98;0.68;;;22.00;62.50;;;;;;5080147;28;20024;-58
2023/07/19 07:49:17;;;;;;;0.50;0.45;;;22.10;62.50;;;;;;5078809;28;20040;-59
2023/07/19 07:51:43;;;;;;;0.65;0.50;;;22.30;62.60;;;;;;5074881;28;20032;-58
2023/07/19 07:54:09;;;;;;;1.35;0.40;;;22.40;62.40;;;;;;5079658;28;20078;-59
2023/07/19 07:56:34;;;;;;;1.60;0.88;;;22.40;62.40;;;;;;5080810;28;20037;-58
2023/07/19 07:59:01;;;;;;;1.20;0.63;;;22.60;62.30;;;;;;5070238;28;20440;-58
2023/07/19 08:01:27;;;;;;;1.13;1.05;;;22.60;62.10;;;;;;5072394;28;20466;-60
2023/07/19 08:03:53;;;;;;;2.22;1.70;;;22.70;61.50;;;;;;5080621;28;20041;-61
2023/07/19 08:06:19;;;;;;;3.45;1.75;;;22.60;61.70;;;;;;5073191;28;20491;-60
2023/07/19 08:08:45;;;;;;;2.13;0.70;;;22.70;61.90;;;;;;5084572;28;20035;-60
2023/07/19 08:11:11;;;;;;;1.45;0.70;;;22.70;62.00;;;;;;5072919;28;20131;-60
2023/07/19 08:13:36;;;;;;;2.55;1.10;;;22.80;62.00;;;;;;5077036;28;20120;-60
2023/07/19 08:16:06;;;;;;;1.20;0.80;;;22.90;62.10;;;;;;5073211;28;20028;-59
2023/07/19 08:18:31;;;;;;;1.17;0.90;;;23.00;61.80;;;;;;5065993;28;20413;-59
2023/07/19 08:20:57;;;;;;;0.88;0.52;;;23.00;61.40;;;;;;5063827;28;20086;-58
2023/07/19 08:23:24;;;;;;;1.73;0.65;;;23.00;61.50;;;;;;5072504;28;20527;-58
2023/07/19 08:25:57;;;;;;;1.10;0.80;;;23.00;61.50;;;;;;5073473;28;20028;-60
2023/07/19 08:28:26;;;;;;;1.48;1.17;;;23.10;61.40;;;;;;5070799;28;20127;-60
2023/07/19 08:30:53;;;;;;;1.40;0.90;;;23.20;61.00;;;;;;5075563;28;20017;-59
2023/07/19 08:33:21;;;;;;;2.45;1.20;;;23.10;61.00;;;;;;5073081;28;20387;-58
2023/07/19 08:35:47;;;;;;;2.75;1.10;;;23.10;61.40;;;;;;5074148;28;20074;-59
2023/07/19 08:38:13;;;;;;;3.20;1.10;;;23.20;61.20;;;;;;5074095;28;20383;-60
2023/07/19 08:40:39;;;;;;;2.40;1.20;;;23.30;60.70;;;;;;5074189;28;20028;-59
2023/07/19 08:43:08;;;;;;;2.42;0.90;;;23.40;61.00;;;;;;5072714;28;20480;-59
2023/07/19 08:45:36;;;;;;;2.97;1.83;;;23.60;60.70;;;;;;5078522;28;20106;-61
2023/07/19 08:48:03;;;;;;;1.40;1.10;;;23.70;60.30;;;;;;5079715;28;20031;-60
2023/07/19 08:50:29;;;;;;;1.42;0.80;;;23.80;59.70;;;;;;5063209;28;20025;-59
2023/07/19 08:53:01;;;;;;;0.75;0.52;;;23.90;59.50;;;;;;5069741;28;20680;-61
2023/07/19 08:55:26;;;;;;;1.08;0.60;;;24.00;59.30;;;;;;5074046;28;20474;-61
2023/07/19 08:57:52;;;;;;;2.75;1.35;;;24.20;58.80;;;;;;5070534;28;20020;-60
2023/07/19 09:00:18;;;;;;;0.93;0.75;;;24.20;58.40;;;;;;5066183;28;20021;-59
2023/07/19 09:02:44;;;;;;;1.25;1.13;;;24.00;58.50;;;;;;5076230;28;20035;-59
2023/07/19 09:05:12;;;;;;;1.65;0.93;;;23.80;58.60;;;;;;5076380;28;20071;-59
2023/07/19 09:07:38;;;;;;;1.80;1.25;;;23.70;59.40;;;;;;5069911;28;20059;-59
2023/07/19 09:10:06;;;;;;;1.60;0.73;;;23.60;59.80;;;;;;5068641;28;20020;-60
2023/07/19 09:12:40;;;;;;;1.40;0.63;;;23.50;59.90;;;;;;5084634;28;20053;-59
2023/07/19 09:15:07;;;;;;;0.75;0.50;;;23.40;60.00;;;;;;5078866;28;20387;-59
2023/07/19 09:17:41;;;;;;;2.15;1.15;;;23.40;60.30;;;;;;5073969;28;20082;-59
2023/07/19 09:20:07;;;;;;;0.85;0.60;;;23.40;60.30;;;;;;5074063;28;20494;-59
2023/07/19 09:22:37;;;;;;;0.80;0.80;;;23.50;60.30;;;;;;5076726;28;20544;-59
2023/07/19 09:25:09;;;;;;;2.22;1.10;;;23.50;60.00;;;;;;5069731;28;20032;-61
2023/07/19 09:27:35;;;;;;;1.30;1.00;;;23.50;60.00;;;;;;5075232;28;20544;-61
2023/07/19 09:30:03;;;;;;;2.55;1.50;;;23.50;60.20;;;;;;5077657;28;20911;-61
2023/07/19 09:32:29;;;;;;;1.00;0.80;;;23.70;60.10;;;;;;5071101;28;20673;-61
2023/07/19 09:34:57;;;;;;;0.93;0.70;;;24.10;60.00;;;;;;5074254;28;20028;-61
2023/07/19 09:37:25;;;;;;;1.63;1.05;;;24.30;58.80;;;;;;5073594;28;20356;-61
2023/07/19 09:39:52;;;;;;;0.90;0.60;;;24.50;57.80;;;;;;5070456;28;20035;-61
2023/07/19 09:42:19;;;;;;;0.40;0.40;;;24.40;56.60;;;;;;5078412;28;20449;-59
2023/07/19 09:44:49;;;;;;;1.02;0.65;;;24.30;57.00;;;;;;5075895;28;20056;-59
2023/07/19 09:47:15;;;;;;;0.65;0.60;;;24.20;57.30;;;;;;5071374;28;20071;-60
2023/07/19 09:49:42;;;;;;;0.70;0.70;;;24.00;57.50;;;;;;5072549;28;20028;-59
2023/07/19 09:52:12;;;;;;;1.42;1.00;;;23.90;57.90;;;;;;5071841;28;20033;-59
2023/07/19 09:54:38;;;;;;;1.30;0.85;;;23.80;58.10;;;;;;5073829;28;20077;-59
2023/07/19 09:57:04;;;;;;;0.80;0.60;;;23.80;58.20;;;;;;5066638;28;20025;-61
2023/07/19 09:59:38;;;;;;;2.45;1.00;;;23.90;57.90;;;;;;5057522;28;20032;-59
2023/07/19 10:02:04;;;;;;;1.15;0.82;;;24.10;58.10;;;;;;5062718;28;20446;-59
2023/07/19 10:04:37;;;;;;;0.57;0.57;;;24.30;57.00;;;;;;5066925;28;20025;-59
2023/07/19 10:07:11;;;;;;;3.13;0.70;;;24.50;56.70;;;;;;5071393;28;20020;-60
2023/07/19 10:09:39;;;;;;;1.50;0.70;;;24.80;56.00;;;;;;5072709;28;20039;-59
2023/07/19 10:12:06;;;;;;;0.70;0.70;;;24.90;54.70;;;;;;5069203;28;20025;-61
2023/07/19 10:14:33;;;;;;;1.98;1.00;;;25.10;55.00;;;;;;5064025;28;20037;-59
2023/07/19 10:17:00;;;;;;;1.40;0.80;;;25.30;54.70;;;;;;5069261;28;20032;-59
2023/07/19 10:19:27;;;;;;;3.05;1.50;;;25.40;54.50;;;;;;5067413;28;20020;-59
2023/07/19 10:22:06;;;;;;;1.45;0.70;;;25.30;55.10;;;;;;5075202;28;20186;-59
2023/07/19 10:24:35;;;;;;;1.88;0.93;;;25.20;54.60;;;;;;5061642;28;20040;-59
2023/07/19 10:27:06;;;;;;;1.92;0.80;;;24.90;54.70;;;;;;5068334;28;20438;-61
2023/07/19 10:29:46;;;;;;;3.00;0.88;;;24.80;55.40;;;;;;5066570;28;20060;-61
2023/07/19 10:32:12;;;;;;;1.20;1.10;;;24.70;55.70;;;;;;5069591;28;20039;-61
2023/07/19 10:34:38;;;;;;;1.10;0.80;;;24.60;56.00;;;;;;5052235;28;20535;-61
2023/07/19 10:37:04;;;;;;;2.15;1.20;;;24.50;56.00;;;;;;5070836;28;20025;-61
2023/07/19 10:39:31;;;;;;;0.88;0.88;;;24.30;58.20;;;;;;5070210;28;20118;-61
2023/07/19 10:41:58;;;;;;;2.88;1.20;;;24.00;60.80;;;;;;5065540;28;20475;-60
2023/07/19 10:44:26;;;;;;;1.95;1.33;;;23.70;62.80;;;;;;5073927;28;20027;-60
2023/07/19 10:46:54;;;;;;;1.00;1.00;;;23.40;64.00;;;;;;5072338;28;20082;-60
2023/07/19 10:49:24;;;;;;;1.67;1.30;;;23.30;65.20;;;;;;5073555;28;20487;-60
2023/07/19 10:51:58;;;;;;;1.35;0.90;;;23.30;66.10;;;;;;5069082;28;20036;-60
2023/07/19 10:54:25;;;;;;;1.58;0.85;;;23.40;66.30;;;;;;5072745;28;20468;-60
2023/07/19 10:56:51;;;;;;;0.75;0.70;;;23.70;66.70;;;;;;5073290;28;20033;-60
2023/07/19 10:59:18;;;;;;;1.20;0.77;;;23.90;66.70;;;;;;5067234;28;20037;-60
2023/07/19 11:01:48;;;;;;;0.80;0.80;;;24.20;66.10;;;;;;5073816;28;20028;-60
2023/07/19 11:04:17;;;;;;;3.33;0.80;;;24.40;65.70;;;;;;5074712;28;20039;-60
2023/07/19 11:06:57;;;;;;;1.67;0.80;;;24.70;65.60;;;;;;5070618;28;20440;-60
2023/07/19 11:09:22;;;;;;;1.92;0.80;;;25.00;64.80;;;;;;5073628;28;20552;-60
2023/07/19 11:11:53;;;;;;;1.08;1.02;;;25.10;64.10;;;;;;5074481;28;20051;-60
2023/07/19 11:14:33;;;;;;;5.10;1.40;;;25.30;64.10;;;;;;5067848;28;20052;-61
2023/07/19 11:16:58;;;;;;;2.17;1.35;;;25.50;63.20;;;;;;5067042;28;20029;-62
2023/07/19 11:19:40;;;;;;;0.70;0.70;;;25.60;62.20;;;;;;5067039;28;20408;-62
2023/07/19 11:22:08;;;;;;;1.13;0.85;;;25.70;62.30;;;;;;5074343;28;20037;-62
2023/07/19 11:24:38;;;;;;;0.90;0.90;;;25.90;61.80;;;;;;5069836;28;20021;-63
2023/07/19 11:27:04;;;;;;;2.05;1.05;;;26.10;60.80;;;;;;5071523;28;20038;-63
2023/07/19 11:29:31;;;;;;;0.70;0.70;;;26.20;60.20;;;;;;5073583;28;20077;-58
2023/07/19 11:32:20;;;;;;;3.55;1.02;;;26.20;59.10;;;;;;5079327;28;20087;-58
2023/07/19 11:34:51;;;;;;;2.58;0.88;;;26.30;59.10;;;;;;5066290;28;20020;-58
2023/07/19 11:37:23;;;;;;;0.87;0.87;;;26.50;58.90;;;;;;5072552;28;20100;-58
2023/07/19 11:39:50;;;;;;;2.25;1.00;;;26.60;58.80;;;;;;5074009;28;20028;-58
2023/07/19 11:43:01;;;;;;;1.15;0.85;;;26.70;58.00;;;;;;5067433;28;20032;-58
2023/07/19 11:45:28;;;;;;;3.15;0.95;;;26.50;57.90;;;;;;5060401;28;20585;-58
2023/07/19 11:48:00;;;;;;;1.48;1.00;;;26.10;58.60;;;;;;5077386;28;20061;-60
2023/07/19 11:50:26;;;;;;;1.15;1.02;;;25.70;58.70;;;;;;5078664;28;20526;-60
2023/07/19 11:52:57;;;;;;;0.90;0.90;;;25.30;59.90;;;;;;5068238;28;20031;-60
2023/07/19 11:55:24;;;;;;;1.42;0.70;;;25.00;60.60;;;;;;5066832;28;20115;-58
2023/07/19 11:57:51;;;;;;;1.30;1.08;;;24.90;61.20;;;;;;5069471;28;20111;-60
2023/07/19 12:00:20;;;;;;;2.15;1.13;;;24.90;61.50;;;;;;5073145;28;20111;-60
2023/07/19 12:02:48;;;;;;;0.63;0.60;;;25.00;61.80;;;;;;5075787;28;20033;-57
2023/07/19 12:05:16;;;;;;;0.77;0.60;;;25.10;61.40;;;;;;5070189;28;20073;-57
2023/07/19 12:07:42;;;;;;;1.05;0.60;;;25.30;61.30;;;;;;5078696;28;20127;-57
2023/07/19 12:10:09;;;;;;;0.85;0.77;;;25.30;60.90;;;;;;5075109;28;20468;-60
2023/07/19 12:12:35;;;;;;;1.13;1.02;;;25.40;60.80;;;;;;5080634;28;20013;-57
2023/07/19 12:15:04;;;;;;;1.13;1.02;;;25.30;60.70;;;;;;5064719;28;20090;-58
2023/07/19 12:17:34;;;;;;;0.73;0.73;;;25.20;60.80;;;;;;5070249;28;20024;-57
2023/07/19 12:20:00;;;;;;;1.50;0.95;;;24.90;61.40;;;;;;5075389;28;20110;-58
2023/07/19 12:22:29;;;;;;;2.53;1.17;;;24.60;62.40;;;;;;5079881;28;20044;-58
2023/07/19 12:24:56;;;;;;;0.82;0.82;;;24.20;63.50;;;;;;5074664;28;20532;-58
2023/07/19 12:27:22;;;;;;;1.45;0.60;;;23.80;64.80;;;;;;5061739;28;20031;-58
2023/07/19 12:29:48;;;;;;;1.40;1.13;;;23.50;65.80;;;;;;5068277;28;20032;-58
2023/07/19 12:32:14;;;;;;;0.63;0.60;;;23.30;66.50;;;;;;5072919;28;20027;-58
2023/07/19 12:34:41;;;;;;;1.33;1.10;;;23.10;66.80;;;;;;5075306;28;20036;-58
2023/07/19 12:37:07;;;;;;;0.70;0.70;;;22.90;67.60;;;;;;5074130;28;20752;-58
2023/07/19 12:39:32;;;;;;;2.95;1.33;;;22.80;68.20;;;;;;5071702;28;20021;-58
2023/07/19 12:41:58;;;;;;;0.73;0.65;;;22.70;69.40;;;;;;5064501;28;20044;-58
2023/07/19 12:44:24;;;;;;;2.15;1.45;;;22.80;68.90;;;;;;5078025;28;20028;-58
2023/07/19 12:46:50;;;;;;;0.82;0.82;;;23.00;69.00;;;;;;5072940;28;20058;-59